Terminal Aerodrome Forecast
Issued by NWS

Home | Current Version | Previous Version | Text Only | Print | Product List | Glossary On
Versions: 1 2 3 4 5 6 7 8 9 10 11 12 13 14 15 16 17 18
000
FTUS43 KPAH 110520
TAFOWB
TAF
KOWB 110520Z 1106/1206 16010KT P6SM OVC050
     FM111800 19012KT P6SM -RA OVC030
     FM120000 21008KT 2SM -RA BR OVC008=

USA.gov is the U.S. government's official web portal to all federal, state and local government web resources and services.